createdAt,value
2023-07-03T00:00:16.253Z,46.90
2023-07-03T00:02:44.308Z,46.86
2023-07-03T00:05:12.033Z,47.27
2023-07-03T00:07:40.661Z,46.40
2023-07-03T00:10:09.772Z,46.67
2023-07-03T00:12:37.252Z,46.93
2023-07-03T00:15:05.814Z,46.97
2023-07-03T00:17:35.115Z,47.87
2023-07-03T00:20:02.563Z,48.25
2023-07-03T00:22:29.978Z,48.83
2023-07-03T00:24:57.816Z,49.63
2023-07-03T00:27:25.325Z,49.38
2023-07-03T00:29:52.773Z,49.45
2023-07-03T00:32:20.534Z,49.73
2023-07-03T00:34:48.317Z,49.44
2023-07-03T00:37:16.519Z,49.79
2023-07-03T00:39:45.300Z,49.56
2023-07-03T00:42:12.707Z,49.97
2023-07-03T00:44:40.762Z,50.47
2023-07-03T00:47:10.995Z,50.61
2023-07-03T00:49:38.664Z,50.66
2023-07-03T00:52:06.501Z,50.50
2023-07-03T00:54:34.300Z,50.56
2023-07-03T00:57:01.795Z,50.76
2023-07-03T00:59:29.276Z,50.71
2023-07-03T01:02:19.498Z,50.78
2023-07-03T01:05:18.058Z,50.91
2023-07-03T01:07:48.242Z,51.35
2023-07-03T01:10:19.708Z,51.51
2023-07-03T01:12:58.309Z,51.52
2023-07-03T01:15:29.199Z,52.30
2023-07-03T01:17:57.833Z,52.34
2023-07-03T01:20:27.098Z,52.43
2023-07-03T01:23:11.538Z,52.00
2023-07-03T01:25:41.047Z,52.14
2023-07-03T01:28:11.849Z,52.08
2023-07-03T01:30:41.925Z,52.68
2023-07-03T01:33:15.401Z,52.54
2023-07-03T01:35:43.607Z,52.44
2023-07-03T01:38:11.334Z,52.45
2023-07-03T01:40:39.184Z,52.70
2023-07-03T01:43:07.561Z,52.43
2023-07-03T01:45:40.674Z,52.83
2023-07-03T01:48:09.415Z,54.24
2023-07-03T01:50:38.331Z,54.73
2023-07-03T01:53:18.463Z,54.04
2023-07-03T01:56:00.621Z,54.19
2023-07-03T01:58:47.628Z,53.82
2023-07-03T02:01:26.180Z,53.78
2023-07-03T02:03:57.551Z,53.35
2023-07-03T02:06:37.840Z,53.49
2023-07-03T02:09:08.423Z,53.31
2023-07-03T02:11:36.230Z,53.61
2023-07-03T02:14:04.099Z,53.79
2023-07-03T02:16:32.425Z,52.71
2023-07-03T02:19:00.130Z,52.78
2023-07-03T02:21:28.955Z,52.26
2023-07-03T02:23:56.720Z,52.62
2023-07-03T02:26:24.670Z,52.51
2023-07-03T02:28:52.300Z,52.30
2023-07-03T02:31:20.127Z,52.16
2023-07-03T02:33:50.130Z,52.26
2023-07-03T02:36:18.021Z,51.98
2023-07-03T02:38:45.563Z,51.23
2023-07-03T02:41:13.386Z,51.37
2023-07-03T02:43:40.839Z,51.49
2023-07-03T02:46:09.759Z,51.16
2023-07-03T02:48:37.622Z,50.87
2023-07-03T02:51:05.519Z,51.17
2023-07-03T02:53:34.353Z,51.62
2023-07-03T02:56:02.600Z,51.64
2023-07-03T02:58:31.171Z,51.87
2023-07-03T03:00:58.998Z,51.27
2023-07-03T03:03:27.147Z,50.65
2023-07-03T03:05:56.493Z,50.58
2023-07-03T03:08:25.062Z,51.45
2023-07-03T03:10:55.627Z,51.50
2023-07-03T03:13:23.553Z,51.30
2023-07-03T03:15:52.967Z,51.74
2023-07-03T03:18:21.112Z,52.12
2023-07-03T03:20:48.781Z,52.31
2023-07-03T03:23:16.368Z,52.70
2023-07-03T03:25:44.373Z,51.69
2023-07-03T03:28:11.934Z,51.28
2023-07-03T03:30:39.985Z,51.74
2023-07-03T03:33:08.118Z,51.83
2023-07-03T03:35:35.591Z,52.31
2023-07-03T03:38:03.143Z,52.54
2023-07-03T03:40:31.218Z,53.18
2023-07-03T03:42:59.915Z,52.57
2023-07-03T03:45:27.535Z,51.12
2023-07-03T03:47:55.439Z,52.24
2023-07-03T03:50:22.970Z,51.53
2023-07-03T03:52:50.687Z,51.39
2023-07-03T03:55:18.533Z,51.41
2023-07-03T03:57:49.293Z,51.26
2023-07-03T04:00:18.366Z,50.87
2023-07-03T04:02:46.453Z,50.77
2023-07-03T04:05:14.087Z,50.50
2023-07-03T04:07:41.699Z,49.73
2023-07-03T04:10:10.838Z,48.69
2023-07-03T04:12:38.473Z,48.51
2023-07-03T04:15:06.932Z,48.61
2023-07-03T04:17:34.936Z,48.47
2023-07-03T04:20:02.430Z,48.01
2023-07-03T04:22:29.918Z,47.69
2023-07-03T04:24:57.682Z,47.17
2023-07-03T04:27:25.117Z,46.89
2023-07-03T04:29:52.583Z,46.63
2023-07-03T04:32:20.383Z,46.44
2023-07-03T04:34:47.833Z,46.22
2023-07-03T04:37:15.570Z,46.31
2023-07-03T04:39:43.336Z,45.98
2023-07-03T04:42:14.743Z,46.72
2023-07-03T04:44:43.126Z,45.33
2023-07-03T04:47:10.984Z,45.85
2023-07-03T04:49:38.441Z,46.04
2023-07-03T04:52:06.514Z,46.22
2023-07-03T04:54:34.419Z,45.62
2023-07-03T04:57:01.953Z,45.43
2023-07-03T04:59:29.522Z,45.13
2023-07-03T05:01:57.494Z,44.28
2023-07-03T05:04:24.972Z,44.32
2023-07-03T05:06:52.921Z,44.86
2023-07-03T05:09:20.715Z,44.61
2023-07-03T05:11:51.051Z,44.53
2023-07-03T05:14:18.653Z,43.88
2023-07-03T05:16:46.813Z,44.18
2023-07-03T05:19:14.687Z,43.21
2023-07-03T05:21:42.268Z,43.06
2023-07-03T05:24:10.251Z,43.73
2023-07-03T05:26:37.783Z,42.65
2023-07-03T05:29:05.277Z,42.68
2023-07-03T05:31:33.256Z,42.94
2023-07-03T05:34:00.887Z,43.04
2023-07-03T05:36:28.357Z,42.40
2023-07-03T05:38:56.103Z,41.83
2023-07-03T05:41:24.452Z,39.82
2023-07-03T05:43:52.206Z,40.86
2023-07-03T05:46:19.957Z,42.31
2023-07-03T05:48:48.088Z,40.72
2023-07-03T05:51:15.556Z,40.32
2023-07-03T05:53:43.322Z,40.54
2023-07-03T05:56:10.737Z,39.54
2023-07-03T05:58:38.337Z,39.20
2023-07-03T06:01:06.124Z,39.29
2023-07-03T06:03:34.013Z,39.19
2023-07-03T06:06:01.781Z,38.65
2023-07-03T06:08:29.284Z,39.41
2023-07-03T06:10:57.062Z,38.08
2023-07-03T06:13:24.576Z,38.53
2023-07-03T06:15:52.324Z,38.59
2023-07-03T06:18:20.316Z,37.18
2023-07-03T06:20:48.728Z,37.25
2023-07-03T06:23:16.981Z,37.83
2023-07-03T06:25:44.858Z,38.75
2023-07-03T06:28:12.341Z,38.64
2023-07-03T06:30:40.269Z,39.51
2023-07-03T06:33:08.067Z,38.43
2023-07-03T06:35:35.713Z,38.49
2023-07-03T06:38:04.529Z,39.49
2023-07-03T06:40:32.440Z,37.82
2023-07-03T06:43:00.086Z,37.40
2023-07-03T06:45:28.368Z,37.10
2023-07-03T06:47:56.255Z,31.15
2023-07-03T06:50:23.889Z,34.50
2023-07-03T06:52:51.483Z,34.74
2023-07-03T06:55:19.898Z,30.04
2023-07-03T06:57:47.540Z,28.68
2023-07-03T07:00:15.553Z,29.62
2023-07-03T07:02:43.460Z,28.39
2023-07-03T07:05:11.400Z,28.48
2023-07-03T07:07:41.594Z,24.83
2023-07-03T07:10:09.537Z,25.55
2023-07-03T07:12:40.277Z,26.07
2023-07-03T07:15:08.531Z,26.50
2023-07-03T07:20:14.828Z,26.58
2023-07-03T07:22:43.302Z,25.15
2023-07-03T07:25:11.023Z,25.53
2023-07-03T07:27:38.768Z,24.86
2023-07-03T07:30:07.497Z,25.64
2023-07-03T07:32:37.470Z,27.55
2023-07-03T07:35:08.785Z,26.82
2023-07-03T07:37:36.780Z,27.33
2023-07-03T07:40:07.926Z,25.54
2023-07-03T07:42:36.313Z,27.53
2023-07-03T07:45:07.485Z,24.76
2023-07-03T07:47:35.249Z,26.52
2023-07-03T07:50:03.367Z,26.49
2023-07-03T07:52:31.465Z,26.82
2023-07-03T07:54:59.629Z,28.10
2023-07-03T07:57:30.577Z,26.59
2023-07-03T07:59:58.304Z,26.98
2023-07-03T08:02:28.500Z,27.13
2023-07-03T08:04:57.963Z,27.12
2023-07-03T08:07:25.717Z,28.12
2023-07-03T08:09:53.385Z,26.93
2023-07-03T08:12:22.230Z,26.49
2023-07-03T08:14:49.997Z,26.85
2023-07-03T08:17:17.670Z,26.27
2023-07-03T08:19:45.746Z,26.86
2023-07-03T08:22:13.344Z,26.46
2023-07-03T08:24:40.905Z,26.78
2023-07-03T08:27:08.977Z,27.87
2023-07-03T08:29:36.555Z,26.39
2023-07-03T08:32:04.524Z,26.91
2023-07-03T08:34:33.405Z,26.76
2023-07-03T08:39:31.982Z,25.73
2023-07-03T08:42:25.225Z,27.45
2023-07-03T08:44:53.199Z,27.11
2023-07-03T08:47:24.109Z,25.80
2023-07-03T08:49:52.822Z,24.91
2023-07-03T08:52:38.289Z,24.99
2023-07-03T08:55:09.085Z,24.15
2023-07-03T08:57:38.798Z,23.30
2023-07-03T09:00:13.054Z,22.98
2023-07-03T09:02:53.425Z,24.35
2023-07-03T09:05:47.508Z,23.21
2023-07-03T09:08:23.478Z,23.41
2023-07-03T09:10:51.549Z,22.57
2023-07-03T09:13:24.765Z,23.29
2023-07-03T09:16:12.685Z,24.47
2023-07-03T09:18:47.084Z,23.41
2023-07-03T09:21:15.241Z,23.14
2023-07-03T09:24:03.736Z,23.95
2023-07-03T09:27:01.464Z,24.84
2023-07-03T09:29:30.394Z,24.75
2023-07-03T09:31:58.544Z,23.43
2023-07-03T09:34:26.298Z,22.83
2023-07-03T09:37:01.765Z,22.24
2023-07-03T09:39:32.326Z,22.88
2023-07-03T09:42:07.930Z,22.81
2023-07-03T09:44:42.764Z,22.56
2023-07-03T09:47:18.595Z,22.56
2023-07-03T09:49:46.316Z,23.55
2023-07-03T09:52:15.361Z,23.22
2023-07-03T09:54:44.937Z,22.87
2023-07-03T09:57:25.339Z,21.90
2023-07-03T10:00:16.185Z,23.27
2023-07-03T10:07:56.897Z,23.19
2023-07-03T10:13:19.226Z,22.58
2023-07-03T10:15:48.077Z,23.37
2023-07-03T10:18:25.089Z,22.66
2023-07-03T10:20:52.978Z,21.51
2023-07-03T10:23:31.860Z,21.57
2023-07-03T10:26:06.912Z,21.22
2023-07-03T10:28:53.774Z,21.16
2023-07-03T10:31:37.307Z,22.21
2023-07-03T10:34:12.233Z,21.51
2023-07-03T10:36:41.161Z,21.98
2023-07-03T10:39:34.009Z,21.43
2023-07-03T10:42:27.740Z,22.31
2023-07-03T10:45:06.542Z,22.75
2023-07-03T10:47:58.048Z,22.97
2023-07-03T10:50:38.083Z,21.93
2023-07-03T10:53:16.293Z,22.12
2023-07-03T10:56:05.802Z,22.26
2023-07-03T10:58:39.376Z,25.47
2023-07-03T11:01:30.095Z,23.17
2023-07-03T11:04:24.797Z,22.27
2023-07-03T11:07:33.082Z,22.36
2023-07-03T11:10:12.157Z,23.66
2023-07-03T11:12:54.509Z,23.57
2023-07-03T11:15:44.329Z,22.66
2023-07-03T11:24:45.528Z,22.84
2023-07-03T11:29:44.101Z,23.62
2023-07-03T11:32:14.439Z,23.58
2023-07-03T11:40:39.623Z,22.92
2023-07-03T11:45:41.256Z,23.44
2023-07-03T11:48:30.729Z,22.99
2023-07-03T11:51:04.931Z,23.88
2023-07-03T11:53:33.986Z,23.43
2023-07-03T11:56:03.329Z,25.23
2023-07-03T11:58:32.355Z,24.47
2023-07-03T12:01:22.236Z,25.77
2023-07-03T12:03:56.674Z,27.05
2023-07-03T12:06:44.884Z,25.69
2023-07-03T12:09:21.922Z,25.44
2023-07-03T12:12:20.168Z,25.99
2023-07-03T12:15:13.395Z,25.91
2023-07-03T12:17:41.083Z,26.12
2023-07-03T12:20:19.570Z,25.17
2023-07-03T12:22:49.381Z,25.32
2023-07-03T12:25:21.828Z,25.41
2023-07-03T12:27:51.110Z,26.91
2023-07-03T12:30:27.823Z,27.68
2023-07-03T12:32:56.696Z,25.69
2023-07-03T12:35:25.923Z,26.18
2023-07-03T12:38:00.556Z,25.79
2023-07-03T12:40:28.608Z,27.83
2023-07-03T12:42:57.146Z,26.56
2023-07-03T12:45:27.795Z,26.86
2023-07-03T12:48:11.995Z,26.28
2023-07-03T12:50:47.466Z,26.90
2023-07-03T12:53:15.771Z,27.11
2023-07-03T12:55:46.528Z,25.54
2023-07-03T12:58:14.269Z,26.02
2023-07-03T13:00:42.341Z,26.55
2023-07-03T13:03:14.987Z,27.68
2023-07-03T13:05:43.149Z,26.53
2023-07-03T13:08:16.879Z,26.38
2023-07-03T13:11:02.291Z,26.87
2023-07-03T13:13:30.380Z,27.03
2023-07-03T13:15:58.602Z,27.27
2023-07-03T13:18:26.522Z,27.88
2023-07-03T13:20:57.855Z,27.81
2023-07-03T13:23:31.117Z,27.77
2023-07-03T13:25:59.362Z,26.76
2023-07-03T13:28:30.731Z,28.13
2023-07-03T13:31:57.600Z,28.22
2023-07-03T13:34:25.562Z,27.25
2023-07-03T13:36:54.537Z,28.56
2023-07-03T13:39:22.215Z,28.00
2023-07-03T13:41:50.906Z,28.11
2023-07-03T13:44:21.216Z,30.06
2023-07-03T13:46:51.222Z,29.20
2023-07-03T13:49:19.943Z,28.78
2023-07-03T13:51:49.363Z,28.90
2023-07-03T13:54:17.840Z,28.38
2023-07-03T13:56:46.241Z,28.99
2023-07-03T13:59:13.959Z,29.92
2023-07-03T14:01:43.232Z,28.70
2023-07-03T14:04:13.342Z,28.87
2023-07-03T14:06:41.139Z,29.01
2023-07-03T14:09:12.191Z,29.01
2023-07-03T14:11:40.470Z,29.22
2023-07-03T14:14:12.511Z,29.05
2023-07-03T14:16:40.677Z,28.14
2023-07-03T14:19:08.623Z,28.88
2023-07-03T14:21:36.583Z,30.03
2023-07-03T14:24:05.141Z,29.47
2023-07-03T14:26:32.881Z,28.75
2023-07-03T14:29:00.537Z,28.66
2023-07-03T14:31:28.624Z,29.39
2023-07-03T14:33:56.386Z,28.62
2023-07-03T14:36:25.177Z,28.50
2023-07-03T14:38:53.177Z,29.11
2023-07-03T14:41:20.736Z,28.75
2023-07-03T14:43:48.270Z,29.13
2023-07-03T14:46:16.168Z,28.77
2023-07-03T14:48:43.797Z,28.45
2023-07-03T14:51:11.302Z,28.99
2023-07-03T14:53:39.257Z,29.46
2023-07-03T14:56:07.783Z,30.16
2023-07-03T14:58:35.318Z,29.35
2023-07-03T15:01:03.989Z,30.04
2023-07-03T15:03:32.004Z,29.82
2023-07-03T15:06:02.039Z,30.23
2023-07-03T15:08:29.967Z,29.83
2023-07-03T15:10:57.567Z,30.12
2023-07-03T15:13:25.154Z,29.27
2023-07-03T15:15:54.857Z,29.30
2023-07-03T15:18:23.154Z,29.30
2023-07-03T15:20:51.178Z,30.24
2023-07-03T15:23:19.065Z,29.00
2023-07-03T15:25:46.611Z,29.31
2023-07-03T15:28:14.325Z,28.70
2023-07-03T15:30:42.100Z,29.51
2023-07-03T15:33:09.795Z,30.67
2023-07-03T15:35:37.487Z,30.20
2023-07-03T15:38:05.352Z,29.27
2023-07-03T15:40:32.872Z,29.07
2023-07-03T15:43:00.547Z,29.56
2023-07-03T15:45:28.569Z,29.60
2023-07-03T15:47:56.213Z,30.41
2023-07-03T15:50:23.980Z,30.00
2023-07-03T15:52:55.637Z,30.03
2023-07-03T15:55:23.100Z,31.17
2023-07-03T15:57:50.977Z,30.67
2023-07-03T16:00:19.188Z,31.06
2023-07-03T16:02:47.057Z,31.05
2023-07-03T16:05:14.867Z,31.83
2023-07-03T16:07:42.468Z,30.48
2023-07-03T16:10:11.228Z,31.19
2023-07-03T16:12:39.331Z,31.38
2023-07-03T16:15:07.786Z,32.13
2023-07-03T16:17:36.307Z,31.91
2023-07-03T16:20:10.147Z,31.96
2023-07-03T16:22:39.120Z,32.37
2023-07-03T16:25:07.392Z,32.43
2023-07-03T16:27:35.323Z,32.64
2023-07-03T16:30:04.004Z,33.06
2023-07-03T16:32:31.745Z,33.07
2023-07-03T16:34:59.549Z,33.36
2023-07-03T16:37:27.643Z,33.27
2023-07-03T16:39:55.250Z,33.58
2023-07-03T16:42:23.025Z,33.64
2023-07-03T16:44:50.908Z,33.96
2023-07-03T16:47:18.430Z,34.21
2023-07-03T16:49:46.006Z,34.83
2023-07-03T16:52:14.434Z,35.19
2023-07-03T16:54:41.990Z,36.01
2023-07-03T16:57:09.659Z,35.97
2023-07-03T16:59:37.419Z,36.80
2023-07-03T17:02:05.768Z,35.96
2023-07-03T17:04:34.648Z,36.19
2023-07-03T17:07:02.757Z,36.13
2023-07-03T17:09:30.640Z,36.26
2023-07-03T17:11:59.416Z,37.46
2023-07-03T17:14:27.288Z,37.87
2023-07-03T17:16:55.445Z,37.30
2023-07-03T17:19:23.043Z,37.65
2023-07-03T17:21:52.302Z,38.29
2023-07-03T17:24:20.108Z,38.14
2023-07-03T17:26:48.226Z,38.74
2023-07-03T17:29:16.652Z,38.70
2023-07-03T17:31:44.389Z,39.76
2023-07-03T17:34:12.120Z,39.71
2023-07-03T17:36:40.022Z,39.62
2023-07-03T17:39:08.231Z,39.82
2023-07-03T17:41:36.627Z,40.05
2023-07-03T17:44:04.520Z,40.83
2023-07-03T17:46:32.066Z,40.64
2023-07-03T17:49:00.327Z,40.74
2023-07-03T17:51:34.912Z,41.48
2023-07-03T17:54:02.553Z,41.52
2023-07-03T17:56:30.410Z,41.89
2023-07-03T17:58:58.106Z,41.72
2023-07-03T18:01:25.797Z,41.67
2023-07-03T18:03:53.918Z,42.56
2023-07-03T18:06:22.438Z,42.38
2023-07-03T18:08:51.317Z,42.48
2023-07-03T18:11:22.116Z,42.52
2023-07-03T18:13:50.166Z,42.48
2023-07-03T18:16:18.898Z,42.98
2023-07-03T18:18:46.922Z,43.08
2023-07-03T18:21:14.623Z,43.65
2023-07-03T18:23:43.348Z,43.41
2023-07-03T18:26:12.217Z,43.73
2023-07-03T18:28:39.945Z,44.10
2023-07-03T18:31:08.301Z,43.75
2023-07-03T18:33:36.380Z,43.75
2023-07-03T18:36:04.732Z,44.57
2023-07-03T18:38:32.593Z,44.38
2023-07-03T18:41:04.710Z,44.36
2023-07-03T18:43:32.643Z,44.23
2023-07-03T18:46:00.667Z,44.27
2023-07-03T18:48:28.252Z,44.63
2023-07-03T18:50:55.984Z,44.80
2023-07-03T18:53:24.018Z,44.76
2023-07-03T18:55:52.418Z,44.79
2023-07-03T18:58:20.742Z,44.59
2023-07-03T19:00:48.938Z,45.52
2023-07-03T19:03:16.821Z,46.46
2023-07-03T19:05:52.235Z,45.92
2023-07-03T19:08:21.173Z,46.69
2023-07-03T19:10:48.918Z,46.81
2023-07-03T19:13:17.382Z,46.97
2023-07-03T19:15:46.656Z,47.13
2023-07-03T19:18:15.120Z,47.16
2023-07-03T19:20:43.042Z,47.40
2023-07-03T19:23:11.870Z,47.58
2023-07-03T19:25:39.574Z,47.81
2023-07-03T19:28:07.218Z,48.06
2023-07-03T19:30:35.875Z,48.17
2023-07-03T19:33:04.099Z,48.37
2023-07-03T19:35:31.894Z,48.26
2023-07-03T19:38:00.459Z,48.72
2023-07-03T19:40:28.494Z,48.95
2023-07-03T19:42:56.046Z,49.07
2023-07-03T19:45:24.005Z,49.55
2023-07-03T19:47:51.686Z,49.00
2023-07-03T19:50:21.291Z,49.06
2023-07-03T19:52:49.479Z,49.02
2023-07-03T19:55:17.103Z,49.10
2023-07-03T19:57:44.789Z,48.53
2023-07-03T20:00:12.902Z,48.80
2023-07-03T20:02:42.081Z,48.91
2023-07-03T20:05:10.204Z,48.69
2023-07-03T20:07:38.299Z,48.55
2023-07-03T20:10:07.987Z,49.37
2023-07-03T20:12:35.564Z,49.53
2023-07-03T20:15:04.370Z,49.14
2023-07-03T20:17:32.663Z,49.49
2023-07-03T20:20:01.885Z,49.13
2023-07-03T20:22:37.269Z,48.73
2023-07-03T20:25:05.678Z,49.31
2023-07-03T20:27:33.820Z,49.42
2023-07-03T20:30:01.312Z,49.61
2023-07-03T20:32:32.690Z,50.15
2023-07-03T20:35:01.592Z,50.27
2023-07-03T20:37:29.409Z,49.87
2023-07-03T20:40:01.305Z,49.46
2023-07-03T20:42:29.313Z,49.90
2023-07-03T20:44:56.948Z,49.70
2023-07-03T20:47:27.048Z,49.94
2023-07-03T20:49:56.204Z,49.71
2023-07-03T20:52:26.228Z,49.56
2023-07-03T20:55:05.603Z,49.60
2023-07-03T20:57:35.035Z,49.57
2023-07-03T21:00:05.989Z,49.73
2023-07-03T21:02:39.556Z,49.64
2023-07-03T21:05:08.730Z,49.71
2023-07-03T21:07:36.751Z,49.87
2023-07-03T21:10:04.660Z,49.74
2023-07-03T21:12:32.386Z,49.93
2023-07-03T21:15:00.372Z,49.90
2023-07-03T21:17:28.116Z,50.03
2023-07-03T21:19:55.737Z,49.64
2023-07-03T21:22:23.581Z,49.91
2023-07-03T21:24:51.184Z,49.92
2023-07-03T21:27:18.915Z,48.74
2023-07-03T21:29:47.859Z,48.78
2023-07-03T21:32:15.477Z,49.92
2023-07-03T21:34:50.865Z,49.96
2023-07-03T21:37:18.913Z,50.69
2023-07-03T21:39:46.454Z,50.83
2023-07-03T21:42:14.121Z,50.69
2023-07-03T21:44:41.979Z,50.55
2023-07-03T21:47:09.657Z,50.25
2023-07-03T21:49:37.336Z,50.54
2023-07-03T21:52:05.809Z,50.74
2023-07-03T21:54:33.288Z,50.84
2023-07-03T21:57:00.758Z,50.62
2023-07-03T21:59:28.994Z,50.62
2023-07-03T22:01:57.870Z,50.28
2023-07-03T22:04:26.857Z,50.27
2023-07-03T22:06:54.858Z,50.18
2023-07-03T22:09:36.608Z,49.52
2023-07-03T22:12:07.613Z,49.94
2023-07-03T22:14:35.731Z,50.09
2023-07-03T22:17:03.664Z,50.20
2023-07-03T22:19:31.371Z,50.19
2023-07-03T22:22:00.157Z,49.78
2023-07-03T22:24:27.643Z,49.65
2023-07-03T22:26:56.273Z,49.80
2023-07-03T22:29:23.697Z,50.00
2023-07-03T22:31:51.277Z,49.86
2023-07-03T22:34:19.272Z,50.30
2023-07-03T22:36:46.912Z,50.06
2023-07-03T22:39:14.619Z,50.09
2023-07-03T22:41:42.547Z,49.51
2023-07-03T22:44:10.781Z,49.41
2023-07-03T22:46:38.744Z,49.32
2023-07-03T22:49:19.383Z,49.58
2023-07-03T23:09:15.587Z,57.68
2023-07-03T23:11:43.669Z,58.06
2023-07-03T23:14:13.655Z,57.99
2023-07-03T23:16:41.170Z,59.49
2023-07-03T23:19:09.541Z,59.53
2023-07-03T23:21:38.304Z,59.71
2023-07-03T23:24:07.267Z,60.43
2023-07-03T23:26:35.290Z,60.52
2023-07-03T23:29:02.837Z,61.81
2023-07-03T23:31:30.628Z,61.63
2023-07-03T23:33:58.532Z,60.59
2023-07-03T23:36:26.073Z,60.90
2023-07-03T23:38:53.776Z,61.79
2023-07-03T23:41:22.290Z,61.64
2023-07-03T23:43:50.359Z,62.10
2023-07-03T23:46:18.464Z,62.24
2023-07-03T23:48:46.587Z,61.69
2023-07-03T23:51:17.075Z,61.82
2023-07-03T23:53:47.476Z,62.11
2023-07-03T23:56:19.017Z,63.03
2023-07-03T23:58:47.536Z,62.89
